Disclaimer

Please do not use the information listed here in-flight or in-navigation, as they are not provided to us by the airports but are provided by volunteers, so they might be outdated.

Search


Regions


Airport information page

Radio informations:
Tower (TWR) - 122.1 MHz
Approach (APP) - 127.25 MHz

Airport informations:
Latitude: 48° 34' 59.00" N
Longitude: 005° 57' 18.00" E
Elevation: 1106 feet - 337 meters
Operating hours: Remarks
Operating agency: Military
Timezone: UTC+1(+2DT) - Last Sunday in March to last Sunday in October
Fuel: Jet A1+, Jet A1 with icing inhibitor.

100/130 MIL Spec, low lead, aviation gasoline (BLUE)

Runway information:
02/20 - 7878 x 148 feet< - >2401 x 45 meters

Recent METARs:
LFSO 210230Z AUTO 07002KT 1800 0900 R20/P2000 BCFG FEW006 SCT054 OVC066 03/02 Q1008
LFSO 210300Z AUTO 03003KT 4000 BR OVC006 02/02 Q1008
LFSO 210330Z AUTO 09004KT 060V120 4800 DZ BR OVC006 02/01 Q1009

Airport on the map: